createdAt,value
2022-08-26T00:00:33.558Z,21.64
2022-08-26T00:01:33.537Z,21.60
2022-08-26T00:02:33.577Z,21.60
2022-08-26T00:03:33.504Z,21.59
2022-08-26T00:04:33.505Z,21.57
2022-08-26T00:05:32.471Z,21.54
2022-08-26T00:06:33.494Z,21.54
2022-08-26T00:07:33.478Z,21.53
2022-08-26T00:08:33.452Z,21.48
2022-08-26T00:09:33.435Z,21.46
2022-08-26T00:10:33.431Z,21.46
2022-08-26T00:11:33.559Z,21.44
2022-08-26T00:12:37.440Z,21.44
2022-08-26T00:13:33.373Z,21.42
2022-08-26T00:14:33.358Z,21.41
2022-08-26T00:15:33.360Z,21.38
2022-08-26T00:16:33.401Z,21.38
2022-08-26T00:17:33.343Z,21.36
2022-08-26T00:18:33.303Z,21.34
2022-08-26T00:19:33.301Z,21.32
2022-08-26T00:20:33.264Z,21.35
2022-08-26T00:21:33.262Z,21.34
2022-08-26T00:22:33.273Z,21.29
2022-08-26T00:23:33.296Z,21.26
2022-08-26T00:24:33.223Z,21.29
2022-08-26T00:25:33.214Z,21.30
2022-08-26T00:26:33.202Z,21.32
2022-08-26T00:27:33.221Z,21.27
2022-08-26T00:28:33.184Z,21.29
2022-08-26T00:29:35.487Z,21.26
2022-08-26T00:30:33.138Z,21.23
2022-08-26T00:31:33.185Z,21.21
2022-08-26T00:32:33.116Z,21.21
2022-08-26T00:33:33.133Z,21.20
2022-08-26T00:34:33.144Z,21.19
2022-08-26T00:35:33.622Z,21.19
2022-08-26T00:36:33.088Z,21.16
2022-08-26T00:37:33.064Z,21.13
2022-08-26T00:38:33.076Z,21.08
2022-08-26T00:39:33.081Z,21.05
2022-08-26T00:40:33.037Z,21.04
2022-08-26T00:41:33.003Z,21.01
2022-08-26T00:42:32.993Z,20.99
2022-08-26T00:43:32.985Z,20.95
2022-08-26T00:44:32.974Z,20.91
2022-08-26T00:45:32.984Z,20.90
2022-08-26T00:46:32.920Z,20.89
2022-08-26T00:47:32.982Z,20.87
2022-08-26T00:48:32.937Z,20.84
2022-08-26T00:49:32.933Z,20.87
2022-08-26T00:50:32.877Z,20.86
2022-08-26T00:51:32.876Z,20.89
2022-08-26T00:52:32.851Z,20.86
2022-08-26T00:53:33.657Z,20.89
2022-08-26T00:54:32.845Z,20.89
2022-08-26T00:55:34.633Z,20.89
2022-08-26T00:56:32.811Z,20.89
2022-08-26T00:57:32.799Z,20.89
2022-08-26T00:58:32.799Z,20.86
2022-08-26T00:59:33.175Z,20.86
2022-08-26T01:00:32.800Z,20.84
2022-08-26T01:01:32.786Z,20.84
2022-08-26T01:02:32.746Z,20.83
2022-08-26T01:03:33.653Z,20.81
2022-08-26T01:04:32.703Z,20.80
2022-08-26T01:05:32.685Z,20.80
2022-08-26T01:06:32.681Z,20.81
2022-08-26T01:07:32.678Z,20.79
2022-08-26T02:09:52.626Z,20.15
2022-08-26T02:10:54.831Z,20.12
2022-08-26T02:11:51.946Z,20.13
2022-08-26T02:12:51.948Z,20.09
2022-08-26T02:13:51.953Z,20.10
2022-08-26T02:14:51.923Z,20.08
2022-08-26T02:15:51.903Z,20.09
2022-08-26T02:16:51.909Z,20.06
2022-08-26T02:17:52.719Z,20.08
2022-08-26T02:18:53.295Z,20.03
2022-08-26T02:19:51.848Z,20.06
2022-08-26T02:20:51.867Z,20.03
2022-08-26T02:21:52.019Z,20.03
2022-08-26T02:22:51.815Z,20.00
2022-08-26T02:23:51.773Z,20.00
2022-08-26T02:24:51.768Z,19.97
2022-08-26T02:25:51.757Z,19.95
2022-08-26T02:26:51.757Z,19.94
2022-08-26T02:27:51.768Z,19.93
2022-08-26T02:28:51.716Z,19.93
2022-08-26T02:29:51.727Z,19.91
2022-08-26T02:30:51.711Z,19.86
2022-08-26T02:31:51.773Z,19.84
2022-08-26T02:32:51.803Z,19.83
2022-08-26T02:33:51.650Z,19.80
2022-08-26T02:34:51.636Z,19.78
2022-08-26T02:35:51.633Z,19.76
2022-08-26T02:36:51.610Z,19.78
2022-08-26T02:37:51.680Z,19.76
2022-08-26T02:38:52.087Z,19.76
2022-08-26T02:39:51.609Z,19.75
2022-08-26T02:40:51.546Z,19.76
2022-08-26T02:41:51.595Z,19.75
2022-08-26T02:42:52.905Z,19.75
2022-08-26T02:43:51.510Z,19.73
2022-08-26T02:44:51.493Z,19.72
2022-08-26T02:45:51.493Z,19.72
2022-08-26T02:46:51.532Z,19.70
2022-08-26T02:47:51.505Z,19.72
2022-08-26T02:48:51.431Z,19.69
2022-08-26T02:49:51.414Z,19.72
2022-08-26T02:50:51.409Z,19.69
2022-08-26T02:51:51.408Z,19.66
2022-08-26T02:52:51.385Z,19.66
2022-08-26T02:53:51.401Z,19.65
2022-08-26T02:54:51.347Z,19.65
2022-08-26T02:55:51.330Z,19.63
2022-08-26T02:56:51.329Z,19.63
2022-08-26T02:57:51.323Z,19.68
2022-08-26T02:58:51.298Z,19.66
2022-08-26T02:59:51.278Z,19.63
2022-08-26T03:00:53.400Z,19.65
2022-08-26T03:01:51.287Z,19.65
2022-08-26T03:02:51.282Z,19.65
2022-08-26T03:03:51.277Z,19.63
2022-08-26T03:04:57.523Z,19.63
2022-08-26T03:05:51.233Z,19.65
2022-08-26T03:06:52.656Z,19.65
2022-08-26T03:07:51.233Z,19.63
2022-08-26T03:08:51.160Z,19.61
2022-08-26T03:09:51.151Z,19.63
2022-08-26T03:10:51.134Z,19.61
2022-08-26T03:11:51.165Z,19.63
2022-08-26T03:12:52.238Z,19.66
2022-08-26T03:13:51.090Z,19.61
2022-08-26T03:14:51.092Z,19.66
2022-08-26T03:15:51.133Z,19.65
2022-08-26T03:16:51.074Z,19.61
2022-08-26T03:17:51.050Z,19.63
2022-08-26T03:18:52.224Z,19.60
2022-08-26T03:19:54.708Z,19.60
2022-08-26T03:20:51.013Z,19.58
2022-08-26T03:21:50.996Z,19.57
2022-08-26T03:22:50.988Z,19.58
2022-08-26T03:23:50.944Z,19.57
2022-08-26T03:24:50.945Z,19.55
2022-08-26T03:25:50.949Z,19.54
2022-08-26T03:26:52.752Z,19.57
2022-08-26T03:27:50.904Z,19.53
2022-08-26T03:28:50.900Z,19.54
2022-08-26T03:29:50.875Z,19.51
2022-08-26T03:30:50.878Z,19.51
2022-08-26T03:31:50.941Z,19.48
2022-08-26T03:32:50.846Z,19.50
2022-08-26T03:33:50.823Z,19.48
2022-08-26T03:34:50.815Z,19.46
2022-08-26T03:35:50.928Z,19.47
2022-08-26T03:36:50.813Z,19.46
2022-08-26T03:37:50.842Z,19.46
2022-08-26T03:38:50.781Z,19.47
2022-08-26T03:39:50.749Z,19.42
2022-08-26T03:40:50.725Z,19.43
2022-08-26T03:41:50.705Z,19.42
2022-08-26T03:42:50.709Z,19.39
2022-08-26T03:43:50.730Z,19.39
2022-08-26T03:44:50.666Z,19.36
2022-08-26T03:45:50.816Z,19.35
2022-08-26T03:46:50.712Z,19.33
2022-08-26T03:47:50.688Z,19.31
2022-08-26T03:48:50.679Z,19.29
2022-08-26T03:49:50.607Z,19.28
2022-08-26T03:50:50.592Z,19.25
2022-08-26T03:51:50.648Z,19.24
2022-08-26T03:52:50.569Z,19.24
2022-08-26T03:53:50.534Z,19.21
2022-08-26T03:54:50.550Z,19.18
2022-08-26T03:55:52.032Z,19.18
2022-08-26T03:56:50.509Z,19.17
2022-08-26T03:57:50.501Z,19.13
2022-08-26T03:58:50.487Z,19.08
2022-08-26T03:59:50.461Z,19.10
2022-08-26T04:00:55.442Z,19.05
2022-08-26T04:01:50.496Z,19.06
2022-08-26T04:02:50.533Z,19.02
2022-08-26T04:03:50.406Z,18.99
2022-08-26T04:04:50.393Z,18.98
2022-08-26T04:05:50.387Z,18.98
2022-08-26T04:06:50.387Z,18.95
2022-08-26T04:07:50.495Z,18.94
2022-08-26T04:08:50.341Z,18.97
2022-08-26T04:09:50.330Z,18.94
2022-08-26T04:10:50.317Z,18.92
2022-08-26T04:11:50.900Z,18.94
2022-08-26T04:12:50.291Z,18.95
2022-08-26T04:13:50.292Z,18.95
2022-08-26T04:14:50.284Z,18.98
2022-08-26T04:15:50.297Z,18.95
2022-08-26T04:16:50.247Z,18.98
2022-08-26T04:17:50.238Z,18.97
2022-08-26T04:18:50.205Z,18.97
2022-08-26T04:19:50.196Z,18.97
2022-08-26T04:20:50.172Z,18.98
2022-08-26T04:21:50.234Z,18.98
2022-08-26T04:22:50.157Z,18.95
2022-08-26T04:23:50.179Z,18.95
2022-08-26T04:24:50.128Z,18.92
2022-08-26T04:25:50.139Z,18.92
2022-08-26T04:26:50.114Z,18.91
2022-08-26T04:27:50.089Z,18.92
2022-08-26T04:28:50.082Z,18.90
2022-08-26T04:29:53.574Z,18.87
2022-08-26T04:30:50.070Z,18.90
2022-08-26T04:31:50.057Z,18.90
2022-08-26T04:32:50.024Z,18.91
2022-08-26T04:33:50.039Z,18.92
2022-08-26T04:34:49.996Z,18.92
2022-08-26T04:35:50.012Z,18.94
2022-08-26T04:36:49.991Z,18.95
2022-08-26T04:37:50.030Z,18.97
2022-08-26T04:38:49.933Z,18.97
2022-08-26T04:39:50.034Z,18.97
2022-08-26T04:40:49.924Z,18.98
2022-08-26T04:41:49.944Z,18.99
2022-08-26T04:42:49.875Z,18.99
2022-08-26T04:43:49.891Z,18.99
2022-08-26T04:44:49.908Z,18.98
2022-08-26T04:45:49.934Z,18.98
2022-08-26T04:46:49.950Z,18.98
2022-08-26T04:47:49.846Z,18.99
2022-08-26T04:48:49.807Z,18.98
2022-08-26T04:49:49.800Z,18.99
2022-08-26T04:50:49.787Z,18.98
2022-08-26T04:51:49.794Z,19.01
2022-08-26T04:52:49.770Z,19.02
2022-08-26T04:53:49.737Z,18.99
2022-08-26T04:54:49.731Z,19.01
2022-08-26T04:55:51.567Z,19.02
2022-08-26T04:56:49.732Z,19.08
2022-08-26T04:57:49.684Z,19.11
2022-08-26T04:58:49.675Z,19.13
2022-08-26T04:59:49.661Z,19.14
2022-08-26T05:00:49.674Z,19.13
2022-08-26T05:01:49.765Z,19.15
2022-08-26T05:02:49.620Z,19.15
2022-08-26T05:03:49.690Z,19.18
2022-08-26T05:04:49.605Z,19.18
2022-08-26T05:05:49.580Z,19.21
2022-08-26T05:06:52.155Z,19.21
2022-08-26T05:07:49.936Z,19.21
2022-08-26T05:08:49.660Z,19.23
2022-08-26T05:09:49.530Z,19.25
2022-08-26T05:10:49.511Z,19.25
2022-08-26T05:11:52.120Z,19.29
2022-08-26T05:12:49.480Z,19.29
2022-08-26T05:13:49.466Z,19.33
2022-08-26T05:14:49.449Z,19.36
2022-08-26T05:15:49.461Z,19.40
2022-08-26T05:16:49.470Z,19.43
2022-08-26T05:17:49.403Z,19.42
2022-08-26T05:18:49.393Z,19.43
2022-08-26T05:19:49.403Z,19.48
2022-08-26T05:20:49.401Z,19.53
2022-08-26T05:21:49.393Z,19.54
2022-08-26T05:22:49.376Z,19.57
2022-08-26T05:23:49.507Z,19.55
2022-08-26T05:24:49.339Z,19.60
2022-08-26T05:25:49.310Z,19.61
2022-08-26T05:26:49.331Z,19.63
2022-08-26T05:27:49.287Z,19.68
2022-08-26T05:28:49.269Z,19.69
2022-08-26T05:29:54.555Z,19.70
2022-08-26T05:31:10.414Z,19.72
2022-08-26T05:32:25.865Z,19.76
2022-08-26T05:32:52.520Z,19.78
2022-08-26T05:34:12.434Z,19.80
2022-08-26T05:34:49.178Z,19.80
2022-08-26T05:35:49.182Z,19.83
2022-08-26T05:36:49.166Z,19.83
2022-08-26T05:39:11.809Z,19.86
2022-08-26T05:40:12.831Z,19.86
2022-08-26T05:41:12.816Z,19.91
2022-08-26T05:42:12.790Z,19.93
2022-08-26T05:43:12.782Z,19.91
2022-08-26T05:44:12.985Z,19.91
2022-08-26T05:45:12.721Z,19.94
2022-08-26T05:46:12.762Z,19.97
2022-08-26T05:47:12.727Z,19.95
2022-08-26T05:48:12.690Z,19.97
2022-08-26T05:49:13.066Z,20.00
2022-08-26T05:50:12.677Z,20.05
2022-08-26T05:53:21.247Z,20.08
2022-08-26T05:54:22.572Z,20.09
2022-08-26T05:55:22.194Z,20.12
2022-08-26T05:56:22.287Z,20.15
2022-08-26T05:57:23.065Z,20.18
2022-08-26T05:58:22.159Z,20.23
2022-08-26T05:59:24.122Z,20.24
2022-08-26T06:00:22.148Z,20.25
2022-08-26T06:01:22.210Z,20.28
2022-08-26T06:02:22.161Z,20.35
2022-08-26T06:03:22.106Z,20.31
2022-08-26T06:04:22.075Z,20.38
2022-08-26T06:05:22.106Z,20.34
2022-08-26T06:06:27.912Z,20.42
2022-08-26T06:07:22.040Z,20.46
2022-08-26T06:08:22.135Z,20.49
2022-08-26T06:09:22.006Z,20.50
2022-08-26T06:10:32.004Z,20.49
2022-08-26T06:11:21.990Z,20.47
2022-08-26T06:12:22.008Z,20.49
2022-08-26T06:13:21.963Z,20.51
2022-08-26T06:14:21.951Z,20.50
2022-08-26T06:15:21.940Z,20.56
2022-08-26T06:16:21.964Z,20.56
2022-08-26T06:17:21.931Z,20.59
2022-08-26T06:18:21.942Z,20.62
2022-08-26T06:19:22.077Z,20.69
2022-08-26T06:20:24.093Z,20.71
2022-08-26T06:21:21.872Z,20.74
2022-08-26T06:22:22.507Z,20.79
2022-08-26T06:23:21.820Z,20.79
2022-08-26T06:24:21.831Z,20.77
2022-08-26T06:25:21.831Z,20.80
2022-08-26T06:26:21.804Z,20.80
2022-08-26T06:27:21.806Z,20.81
2022-08-26T06:28:21.765Z,20.80
2022-08-26T06:29:24.481Z,20.81
2022-08-26T06:30:21.737Z,20.84
2022-08-26T06:31:21.831Z,20.84
2022-08-26T06:32:21.706Z,20.84
2022-08-26T06:33:21.711Z,20.81
2022-08-26T06:34:21.677Z,20.87
2022-08-26T06:35:21.670Z,20.95
2022-08-26T06:36:21.665Z,20.95
2022-08-26T06:37:23.344Z,20.99
2022-08-26T06:38:21.715Z,21.01
2022-08-26T06:39:21.613Z,21.04
2022-08-26T06:40:21.694Z,21.06
2022-08-26T06:41:21.646Z,21.11
2022-08-26T06:42:21.641Z,21.14
2022-08-26T06:43:21.613Z,21.17
2022-08-26T06:44:21.558Z,21.13
2022-08-26T06:45:21.553Z,21.09
2022-08-26T06:46:21.748Z,21.14
2022-08-26T06:47:21.546Z,21.16
2022-08-26T06:48:21.610Z,21.20
2022-08-26T06:49:26.745Z,21.24
2022-08-26T06:50:21.552Z,21.27
2022-08-26T06:51:22.305Z,21.27
2022-08-26T06:52:24.365Z,21.32
2022-08-26T06:53:21.485Z,21.32
2022-08-26T06:54:21.434Z,21.34
2022-08-26T06:55:21.422Z,21.36
2022-08-26T06:56:21.401Z,21.39
2022-08-26T06:57:21.434Z,21.39
2022-08-26T06:58:21.411Z,21.39
2022-08-26T06:59:21.465Z,21.45
2022-08-26T07:00:21.374Z,21.54
2022-08-26T07:01:21.407Z,21.56
2022-08-26T07:02:21.438Z,21.59
2022-08-26T07:03:21.385Z,21.60
2022-08-26T07:04:22.290Z,21.57
2022-08-26T07:05:21.409Z,21.60
2022-08-26T07:06:21.298Z,21.60
2022-08-26T07:07:21.936Z,21.60
2022-08-26T07:08:21.355Z,21.57
2022-08-26T07:09:21.306Z,21.59
2022-08-26T07:10:21.257Z,21.64
2022-08-26T07:11:21.510Z,21.66
2022-08-26T07:12:22.016Z,21.75
2022-08-26T07:13:30.678Z,21.76
2022-08-26T07:14:21.910Z,21.79
2022-08-26T07:15:25.800Z,21.81
2022-08-26T07:16:21.235Z,21.88
2022-08-26T07:17:21.222Z,21.83
2022-08-26T07:18:21.731Z,21.78
2022-08-26T07:19:31.207Z,21.81
2022-08-26T07:20:21.268Z,21.81
2022-08-26T07:21:21.128Z,21.79
2022-08-26T07:22:21.103Z,21.79
2022-08-26T07:23:21.084Z,21.79
2022-08-26T07:24:21.054Z,21.82
2022-08-26T07:25:21.021Z,21.85
2022-08-26T07:26:21.125Z,21.85
2022-08-26T07:27:21.066Z,21.85
2022-08-26T07:28:21.048Z,21.90
2022-08-26T07:29:21.335Z,21.85
2022-08-26T07:30:20.963Z,21.82
2022-08-26T07:31:21.015Z,21.82
2022-08-26T07:32:20.959Z,21.79
2022-08-26T07:33:20.974Z,21.79
2022-08-26T07:34:20.941Z,21.81
2022-08-26T07:35:20.885Z,21.79
2022-08-26T07:36:20.911Z,21.78
2022-08-26T07:37:20.890Z,21.78
2022-08-26T07:38:20.938Z,21.79
2022-08-26T07:39:20.835Z,21.82
2022-08-26T07:40:20.936Z,21.90
2022-08-26T07:41:20.856Z,21.94
2022-08-26T07:42:20.926Z,21.95
2022-08-26T07:43:23.449Z,21.94
2022-08-26T07:44:20.921Z,21.95
2022-08-26T07:45:20.744Z,21.95
2022-08-26T07:46:27.170Z,21.95
2022-08-26T07:47:25.773Z,21.94
2022-08-26T07:48:21.518Z,21.94
2022-08-26T07:49:20.844Z,21.94
2022-08-26T07:50:20.755Z,22.01
2022-08-26T07:51:20.769Z,22.06
2022-08-26T07:52:25.995Z,22.13
2022-08-26T07:53:20.706Z,22.19
2022-08-26T07:54:20.631Z,22.29
2022-08-26T07:55:20.675Z,22.28
2022-08-26T07:56:20.625Z,22.20
2022-08-26T07:57:20.735Z,22.22
2022-08-26T07:58:20.646Z,22.22
2022-08-26T07:59:20.650Z,22.23
2022-08-26T08:00:20.639Z,22.27
2022-08-26T08:01:20.654Z,22.28
2022-08-26T08:02:21.847Z,22.29
2022-08-26T08:03:20.561Z,22.29
2022-08-26T08:04:26.096Z,22.32
2022-08-26T08:05:20.515Z,22.32
2022-08-26T08:06:20.490Z,22.34
2022-08-26T08:07:20.501Z,22.39
2022-08-26T08:08:27.861Z,22.38
2022-08-26T08:09:20.445Z,22.39
2022-08-26T08:10:20.858Z,22.43
2022-08-26T08:11:20.430Z,22.47
2022-08-26T08:12:20.875Z,22.50
2022-08-26T08:13:20.402Z,22.52
2022-08-26T08:14:20.473Z,22.54
2022-08-26T08:15:20.418Z,22.59
2022-08-26T08:16:20.384Z,22.62
2022-08-26T08:17:20.343Z,22.64
2022-08-26T08:18:20.760Z,22.67
2022-08-26T08:19:20.315Z,22.68
2022-08-26T08:20:20.343Z,22.65
2022-08-26T08:21:22.035Z,22.64
2022-08-26T08:22:20.296Z,22.67
2022-08-26T08:23:20.267Z,22.62
2022-08-26T08:24:20.245Z,22.64
2022-08-26T08:25:20.281Z,22.59
2022-08-26T08:26:20.217Z,22.59
2022-08-26T08:27:23.476Z,22.68
2022-08-26T08:28:20.181Z,22.68
2022-08-26T08:29:20.201Z,22.69
2022-08-26T08:30:23.016Z,22.71
2022-08-26T08:31:38.748Z,22.72
2022-08-26T08:32:20.166Z,22.69
2022-08-26T08:33:20.125Z,22.69
2022-08-26T08:34:21.540Z,22.71
2022-08-26T08:35:20.141Z,22.75
2022-08-26T08:36:20.553Z,22.77
2022-08-26T08:37:20.105Z,22.77
2022-08-26T08:38:41.069Z,22.82
2022-08-26T08:39:20.061Z,22.80
2022-08-26T08:40:22.283Z,22.83
2022-08-26T08:41:20.133Z,22.84
2022-08-26T08:42:20.113Z,22.82
2022-08-26T08:43:20.005Z,22.83
2022-08-26T08:44:20.146Z,22.90
2022-08-26T08:45:21.619Z,22.92
2022-08-26T08:46:20.166Z,22.93
2022-08-26T08:47:19.963Z,22.94
2022-08-26T08:48:19.927Z,22.92
2022-08-26T08:49:19.956Z,22.93
2022-08-26T08:50:19.929Z,22.96
2022-08-26T08:51:19.870Z,22.94
2022-08-26T08:52:19.989Z,22.90
2022-08-26T08:53:19.934Z,22.86
2022-08-26T08:54:19.904Z,22.86
2022-08-26T08:55:19.850Z,22.86
2022-08-26T08:56:19.831Z,22.92
2022-08-26T08:57:19.810Z,22.92
2022-08-26T08:58:19.805Z,22.94
2022-08-26T08:59:19.791Z,22.94
2022-08-26T09:00:19.799Z,22.92
2022-08-26T09:01:19.870Z,22.92
2022-08-26T09:02:19.804Z,22.84
2022-08-26T09:03:19.757Z,22.82
2022-08-26T09:04:19.749Z,22.75
2022-08-26T09:05:19.723Z,22.69
2022-08-26T09:06:19.719Z,22.68
2022-08-26T09:07:19.724Z,22.68
2022-08-26T09:08:19.911Z,22.67
2022-08-26T09:09:19.678Z,22.69
2022-08-26T09:10:19.727Z,22.71
2022-08-26T09:11:19.594Z,22.72
2022-08-26T09:12:19.625Z,22.69
2022-08-26T09:13:25.267Z,22.74
2022-08-26T09:14:19.812Z,22.77
2022-08-26T09:15:19.633Z,22.78
2022-08-26T09:16:20.321Z,22.83
2022-08-26T09:17:19.550Z,22.86
2022-08-26T09:18:19.538Z,22.89
2022-08-26T09:19:19.509Z,22.92
2022-08-26T09:20:19.520Z,22.96
2022-08-26T09:21:19.485Z,22.96
2022-08-26T09:22:19.553Z,22.97
2022-08-26T09:23:19.450Z,23.04
2022-08-26T09:24:19.438Z,22.99
2022-08-26T09:25:19.456Z,23.02
2022-08-26T09:26:21.467Z,23.04
2022-08-26T09:27:19.398Z,23.02
2022-08-26T09:28:19.395Z,23.01
2022-08-26T09:30:18.377Z,22.92
2022-08-26T09:31:19.467Z,22.84
2022-08-26T09:32:19.353Z,22.72
2022-08-26T09:33:19.316Z,22.71
2022-08-26T09:34:19.324Z,22.74
2022-08-26T09:35:19.385Z,22.71
2022-08-26T09:36:19.311Z,22.69
2022-08-26T09:37:19.274Z,22.65
2022-08-26T09:38:19.283Z,22.72
2022-08-26T09:39:19.281Z,22.82
2022-08-26T09:40:19.339Z,22.82
2022-08-26T09:41:19.237Z,22.80
2022-08-26T09:42:19.210Z,22.80
2022-08-26T09:43:22.386Z,22.83
2022-08-26T09:44:19.214Z,22.90
2022-08-26T09:45:19.177Z,22.94
2022-08-26T09:46:19.232Z,23.02
2022-08-26T09:47:19.150Z,22.96
2022-08-26T09:48:19.158Z,22.94
2022-08-26T09:49:19.119Z,22.97
2022-08-26T09:50:19.146Z,23.07
2022-08-26T09:51:19.093Z,23.11
2022-08-26T09:52:19.091Z,23.08
2022-08-26T09:53:21.027Z,23.19
2022-08-26T09:54:20.641Z,23.19
2022-08-26T09:55:19.071Z,23.22
2022-08-26T09:56:19.018Z,23.22
2022-08-26T09:57:19.037Z,23.19
2022-08-26T09:58:20.935Z,23.22
2022-08-26T09:59:19.016Z,23.19
2022-08-26T10:00:19.004Z,23.19
2022-08-26T10:01:19.435Z,23.15
2022-08-26T10:02:18.992Z,23.15
2022-08-26T10:03:18.991Z,23.14
2022-08-26T10:04:18.984Z,23.11
2022-08-26T10:05:18.947Z,23.12
2022-08-26T10:06:21.170Z,23.14
2022-08-26T10:07:18.896Z,23.19
2022-08-26T10:08:18.870Z,23.22
2022-08-26T10:09:18.908Z,23.31
2022-08-26T10:10:18.894Z,23.39
2022-08-26T10:11:18.825Z,23.42
2022-08-26T10:12:18.811Z,23.46
2022-08-26T10:13:18.808Z,23.42
2022-08-26T10:14:18.826Z,23.39
2022-08-26T10:15:18.816Z,23.32
2022-08-26T10:16:18.833Z,23.39
2022-08-26T10:17:18.790Z,23.45
2022-08-26T10:18:18.736Z,23.47
2022-08-26T10:19:18.705Z,23.49
2022-08-26T10:20:22.927Z,23.57
2022-08-26T10:21:18.695Z,23.62
2022-08-26T10:22:18.676Z,23.60
2022-08-26T10:23:18.751Z,23.55
2022-08-26T10:24:18.657Z,23.61
2022-08-26T10:25:18.759Z,23.64
2022-08-26T10:26:18.621Z,23.65
2022-08-26T10:27:18.675Z,23.70
2022-08-26T10:28:18.623Z,23.72
2022-08-26T10:29:18.621Z,23.75
2022-08-26T10:30:18.994Z,23.75
2022-08-26T10:31:19.994Z,23.77
2022-08-26T10:32:18.682Z,23.82
2022-08-26T10:33:18.531Z,23.82
2022-08-26T10:34:18.548Z,23.87
2022-08-26T10:35:18.543Z,23.85
2022-08-26T10:36:20.346Z,23.87
2022-08-26T10:37:18.524Z,23.85
2022-08-26T10:38:18.462Z,23.80
2022-08-26T10:39:18.461Z,23.80
2022-08-26T10:40:18.484Z,23.77
2022-08-26T10:41:18.421Z,23.77
2022-08-26T10:42:18.477Z,23.82
2022-08-26T10:43:18.406Z,23.82
2022-08-26T10:44:18.542Z,23.85
2022-08-26T10:45:18.422Z,23.90
2022-08-26T10:46:18.435Z,23.97
2022-08-26T10:47:18.461Z,24.05
2022-08-26T10:48:18.363Z,24.08
2022-08-26T10:49:18.367Z,24.08
2022-08-26T10:50:18.920Z,24.05
2022-08-26T10:51:18.301Z,24.04
2022-08-26T10:52:18.307Z,24.02
2022-08-26T10:53:18.314Z,24.07
2022-08-26T10:54:18.499Z,24.13
2022-08-26T10:55:18.287Z,24.16
2022-08-26T10:56:19.084Z,24.23
2022-08-26T10:57:18.216Z,24.26
2022-08-26T10:58:26.439Z,24.38
2022-08-26T10:59:18.247Z,24.37
2022-08-26T11:00:18.171Z,24.34
2022-08-26T11:01:22.852Z,24.49
2022-08-26T11:02:22.773Z,24.63
2022-08-26T11:03:21.934Z,24.83
2022-08-26T11:04:18.212Z,24.92
2022-08-26T11:05:18.105Z,25.02
2022-08-26T11:06:18.115Z,25.00
2022-08-26T11:07:18.082Z,25.09
2022-08-26T11:08:18.102Z,25.13
2022-08-26T11:09:18.081Z,25.17
2022-08-26T11:10:18.087Z,25.24
2022-08-26T11:11:18.095Z,25.30
2022-08-26T11:12:18.114Z,25.24
2022-08-26T11:13:18.102Z,25.16
2022-08-26T11:14:17.996Z,25.06
2022-08-26T11:15:17.994Z,24.98
2022-08-26T11:16:17.994Z,24.97
2022-08-26T11:17:17.945Z,24.88
2022-08-26T11:18:18.021Z,24.77
2022-08-26T11:19:17.932Z,24.79
2022-08-26T11:20:17.921Z,24.79
2022-08-26T11:21:18.100Z,24.83
2022-08-26T11:22:17.909Z,24.87
2022-08-26T11:23:17.905Z,24.87
2022-08-26T11:24:18.027Z,24.83
2022-08-26T11:25:19.569Z,24.91
2022-08-26T11:26:38.689Z,24.95
2022-08-26T11:27:17.851Z,24.97
2022-08-26T11:28:17.843Z,24.97
2022-08-26T11:29:17.840Z,25.07
2022-08-26T11:30:18.298Z,25.15
2022-08-26T11:31:17.837Z,25.17
2022-08-26T11:32:17.828Z,25.02
2022-08-26T11:33:17.813Z,24.92
2022-08-26T11:34:17.735Z,24.90
2022-08-26T11:35:17.866Z,24.91
2022-08-26T11:36:17.701Z,24.91
2022-08-26T11:37:17.739Z,24.91
2022-08-26T11:38:20.748Z,24.92
2022-08-26T11:39:19.468Z,24.92
2022-08-26T11:40:17.755Z,24.90
2022-08-26T11:41:17.863Z,24.94
2022-08-26T11:42:20.087Z,24.90
2022-08-26T11:43:17.619Z,24.90
2022-08-26T11:44:17.587Z,24.98
2022-08-26T11:45:17.602Z,25.12
2022-08-26T11:46:17.662Z,25.22
2022-08-26T11:47:17.591Z,25.16
2022-08-26T11:48:17.549Z,25.12
2022-08-26T11:49:17.556Z,25.13
2022-08-26T11:50:17.527Z,25.10
2022-08-26T11:51:17.505Z,25.09
2022-08-26T11:52:17.639Z,25.10
2022-08-26T11:53:17.968Z,25.15
2022-08-26T11:54:31.864Z,25.13
2022-08-26T11:55:17.594Z,25.10
2022-08-26T11:56:18.022Z,25.07
2022-08-26T11:57:17.428Z,25.12
2022-08-26T11:58:17.415Z,25.13
2022-08-26T11:59:17.401Z,25.09
2022-08-26T12:00:22.231Z,25.07
2022-08-26T12:01:17.378Z,25.07
2022-08-26T12:02:17.838Z,25.13
2022-08-26T12:03:17.435Z,25.15
2022-08-26T12:04:17.525Z,25.09
2022-08-26T12:05:17.392Z,25.12
2022-08-26T12:06:17.417Z,25.10
2022-08-26T12:07:18.546Z,25.07
2022-08-26T12:08:17.283Z,25.15
2022-08-26T12:09:17.298Z,25.20
2022-08-26T12:10:17.270Z,25.17
2022-08-26T12:11:17.258Z,25.17
2022-08-26T12:12:17.240Z,25.16
2022-08-26T12:13:17.222Z,25.05
2022-08-26T12:14:17.219Z,25.10
2022-08-26T12:15:17.197Z,25.13
2022-08-26T12:16:17.226Z,25.15
2022-08-26T12:17:17.157Z,25.15
2022-08-26T12:18:17.322Z,25.16
2022-08-26T12:19:17.139Z,25.22
2022-08-26T12:20:17.141Z,25.35
2022-08-26T12:21:17.122Z,25.44
2022-08-26T12:22:17.112Z,25.43
2022-08-26T12:23:17.087Z,25.43
2022-08-26T12:24:17.099Z,25.39
2022-08-26T12:25:17.121Z,25.34
2022-08-26T12:26:17.026Z,25.39
2022-08-26T12:27:17.823Z,25.34
2022-08-26T12:28:17.562Z,25.35
2022-08-26T12:29:20.208Z,25.37
2022-08-26T12:30:18.033Z,25.42
2022-08-26T12:31:17.546Z,25.42
2022-08-26T12:32:16.964Z,25.44
2022-08-26T12:33:23.032Z,25.49
2022-08-26T12:34:17.991Z,25.46
2022-08-26T12:35:16.922Z,25.53
2022-08-26T12:36:16.912Z,25.62
2022-08-26T12:37:16.937Z,25.69
2022-08-26T12:38:16.952Z,25.68
2022-08-26T12:39:16.903Z,25.57
2022-08-26T12:40:16.962Z,25.56
2022-08-26T12:41:17.018Z,25.56
2022-08-26T12:42:16.871Z,25.61
2022-08-26T12:43:16.896Z,25.69
2022-08-26T12:44:16.925Z,25.75
2022-08-26T12:45:16.997Z,25.77
2022-08-26T12:46:16.768Z,25.74
2022-08-26T12:47:16.817Z,25.77
2022-08-26T12:48:16.778Z,25.74
2022-08-26T12:49:16.756Z,25.86
2022-08-26T12:50:16.777Z,25.94
2022-08-26T12:51:16.728Z,26.11
2022-08-26T12:52:16.719Z,26.18
2022-08-26T12:53:16.686Z,26.22
2022-08-26T12:54:16.674Z,26.22
2022-08-26T12:55:16.656Z,26.21
2022-08-26T12:56:16.635Z,26.27
2022-08-26T12:57:17.828Z,26.25
2022-08-26T12:58:16.668Z,26.28
2022-08-26T12:59:16.708Z,26.32
2022-08-26T13:00:16.661Z,26.27
2022-08-26T13:01:16.705Z,26.24
2022-08-26T13:02:16.720Z,26.27
2022-08-26T13:03:16.556Z,26.32
2022-08-26T13:04:16.562Z,26.39
2022-08-26T13:05:16.532Z,26.42
2022-08-26T13:06:16.544Z,26.40
2022-08-26T13:07:16.510Z,26.37
2022-08-26T13:08:16.535Z,26.28
2022-08-26T13:09:16.546Z,26.24
2022-08-26T13:10:16.511Z,26.15
2022-08-26T13:11:16.532Z,26.17
2022-08-26T13:12:18.426Z,26.11
2022-08-26T13:13:16.428Z,26.11
2022-08-26T13:14:23.998Z,26.05
2022-08-26T13:15:16.392Z,26.11
2022-08-26T13:16:16.418Z,26.15
2022-08-26T13:17:16.393Z,26.25
2022-08-26T13:18:16.356Z,26.32
2022-08-26T13:19:16.346Z,26.36
2022-08-26T13:20:16.385Z,26.39
2022-08-26T13:21:16.318Z,26.37
2022-08-26T13:22:16.302Z,26.37
2022-08-26T13:23:16.360Z,26.32
2022-08-26T13:24:16.293Z,26.21
2022-08-26T13:25:16.280Z,26.11
2022-08-26T13:26:16.263Z,26.04
2022-08-26T13:27:16.303Z,25.99
2022-08-26T13:28:18.395Z,25.99
2022-08-26T13:29:16.269Z,26.06
2022-08-26T13:30:16.228Z,26.20
2022-08-26T13:31:16.295Z,26.27
2022-08-26T13:32:16.204Z,26.21
2022-08-26T13:33:16.206Z,26.09
2022-08-26T13:34:16.508Z,26.09
2022-08-26T13:35:16.123Z,25.97
2022-08-26T13:36:16.109Z,25.84
2022-08-26T13:37:16.117Z,25.87
2022-08-26T13:38:22.390Z,25.86
2022-08-26T13:39:16.181Z,25.84
2022-08-26T13:40:16.111Z,25.74
2022-08-26T13:41:16.203Z,25.72
2022-08-26T13:42:16.030Z,25.86
2022-08-26T13:43:16.056Z,25.82
2022-08-26T13:44:18.022Z,25.82
2022-08-26T13:45:16.064Z,25.87
2022-08-26T13:46:16.078Z,25.89
2022-08-26T13:47:16.016Z,25.90
2022-08-26T13:48:19.210Z,25.94
2022-08-26T13:49:15.981Z,25.91
2022-08-26T13:50:15.963Z,25.93
2022-08-26T13:51:15.982Z,25.83
2022-08-26T13:52:15.902Z,25.75
2022-08-26T13:53:15.967Z,25.69
2022-08-26T13:54:16.001Z,25.68
2022-08-26T13:55:15.933Z,25.72
2022-08-26T13:56:15.901Z,25.79
2022-08-26T13:57:15.996Z,25.80
2022-08-26T13:58:15.866Z,25.84